createdAt,value
2022-08-17T00:03:40.120Z,14.38
2022-08-17T00:07:22.220Z,13.43
2022-08-17T00:11:17.089Z,15.20
2022-08-17T00:14:58.904Z,15.50
2022-08-17T00:19:06.830Z,14.50
2022-08-17T00:22:43.892Z,14.27
2022-08-17T00:26:43.701Z,16.90
2022-08-17T00:30:27.215Z,17.83
2022-08-17T00:34:10.084Z,16.40
2022-08-17T00:37:52.205Z,16.33
2022-08-17T00:41:35.774Z,14.40
2022-08-17T00:45:20.321Z,17.08
2022-08-17T00:49:02.579Z,21.95
2022-08-17T00:52:54.878Z,16.65
2022-08-17T00:56:41.627Z,16.60
2022-08-17T01:00:32.755Z,20.52
2022-08-17T01:04:17.925Z,17.48
2022-08-17T01:08:02.008Z,16.83
2022-08-17T01:11:45.148Z,19.20
2022-08-17T01:15:27.162Z,17.00
2022-08-17T01:19:22.038Z,14.20
2022-08-17T01:23:04.150Z,18.00
2022-08-17T01:26:46.411Z,13.80
2022-08-17T01:30:56.861Z,14.73
2022-08-17T01:34:42.309Z,15.30
2022-08-17T01:38:31.434Z,14.75
2022-08-17T01:46:35.614Z,13.95
2022-08-17T01:50:21.309Z,16.85
2022-08-17T01:54:08.492Z,18.17
2022-08-17T01:57:50.278Z,18.17
2022-08-17T02:01:34.718Z,18.63
2022-08-17T02:05:17.061Z,14.43
2022-08-17T02:09:03.168Z,15.68
2022-08-17T02:12:45.443Z,15.60
2022-08-17T02:16:27.324Z,18.10
2022-08-17T02:20:42.159Z,16.75
2022-08-17T02:25:00.551Z,16.67
2022-08-17T02:28:28.636Z,23.80
2022-08-17T02:32:28.487Z,16.83
2022-08-17T02:36:12.693Z,15.55
2022-08-17T02:39:57.157Z,16.42
2022-08-17T02:43:40.347Z,23.40
2022-08-17T02:47:22.364Z,17.08
2022-08-17T02:51:04.211Z,20.33
2022-08-17T02:54:46.863Z,17.95
2022-08-17T02:58:34.913Z,18.33
2022-08-17T03:02:17.519Z,18.58
2022-08-17T03:05:59.315Z,19.73
2022-08-17T03:09:41.139Z,17.77
2022-08-17T03:13:23.250Z,18.42
2022-08-17T03:17:05.164Z,17.23
2022-08-17T03:20:47.450Z,24.38
2022-08-17T03:24:29.249Z,18.02
2022-08-17T03:28:12.168Z,23.02
2022-08-17T03:31:53.986Z,22.42
2022-08-17T03:35:37.596Z,17.45
2022-08-17T03:39:19.378Z,20.67
2022-08-17T03:43:09.033Z,20.55
2022-08-17T03:47:09.637Z,24.92
2022-08-17T03:51:14.658Z,17.80
2022-08-17T03:55:15.530Z,23.17
2022-08-17T03:58:57.364Z,21.17
2022-08-17T04:02:39.350Z,20.90
2022-08-17T04:06:21.127Z,19.63
2022-08-17T04:10:02.964Z,20.83
2022-08-17T04:13:44.766Z,19.40
2022-08-17T04:17:29.085Z,21.55
2022-08-17T04:21:10.927Z,18.95
2022-08-17T04:24:52.692Z,25.48
2022-08-17T04:28:35.427Z,22.95
2022-08-17T04:32:20.599Z,22.25
2022-08-17T04:36:19.092Z,25.40
2022-08-17T04:40:19.569Z,22.45
2022-08-17T04:44:03.855Z,25.45
2022-08-17T04:47:45.723Z,24.73
2022-08-17T04:51:30.990Z,26.27
2022-08-17T04:55:12.881Z,25.35
2022-08-17T04:58:58.342Z,23.73
2022-08-17T05:02:49.842Z,27.25
2022-08-17T05:06:32.360Z,29.83
2022-08-17T05:10:14.173Z,29.50
2022-08-17T05:13:58.534Z,28.90
2022-08-17T05:17:40.340Z,24.67
2022-08-17T05:21:23.181Z,24.88
2022-08-17T05:25:05.320Z,24.70
2022-08-17T05:28:47.979Z,24.50
2022-08-17T05:32:38.321Z,22.70
2022-08-17T05:36:37.966Z,22.23
2022-08-17T05:40:25.915Z,21.92
2022-08-17T05:44:07.727Z,22.45
2022-08-17T05:47:49.494Z,22.63
2022-08-17T05:51:47.539Z,25.52
2022-08-17T05:55:49.047Z,24.08
2022-08-17T05:59:33.543Z,29.23
2022-08-17T06:03:34.127Z,26.83
2022-08-17T06:07:32.171Z,28.52
2022-08-17T06:11:38.706Z,28.63
2022-08-17T06:15:41.711Z,25.27
2022-08-17T06:19:42.216Z,23.35
2022-08-17T06:23:42.823Z,25.83
2022-08-17T06:27:32.776Z,21.98
2022-08-17T06:31:22.569Z,21.50
2022-08-17T06:35:07.525Z,19.60
2022-08-17T06:39:19.827Z,21.02
2022-08-17T06:43:17.809Z,21.85
2022-08-17T06:47:28.709Z,19.63
2022-08-17T06:51:30.564Z,26.77
2022-08-17T06:55:18.950Z,19.20
2022-08-17T06:59:01.840Z,21.50
2022-08-17T07:02:56.495Z,25.50
2022-08-17T07:06:48.778Z,21.10
2022-08-17T07:10:44.854Z,21.83
2022-08-17T07:14:41.162Z,22.00
2022-08-17T07:18:25.457Z,19.85
2022-08-17T07:22:07.216Z,20.92
2022-08-17T07:25:55.095Z,25.25
2022-08-17T07:33:30.135Z,17.85
2022-08-17T07:37:12.681Z,17.35
2022-08-17T07:40:57.991Z,17.80
2022-08-17T07:44:54.951Z,17.92
2022-08-17T07:48:38.733Z,19.90
2022-08-17T07:52:51.034Z,19.75
2022-08-17T07:56:41.821Z,30.10
2022-08-17T08:00:32.612Z,16.23
2022-08-17T08:04:43.193Z,15.73
2022-08-17T08:12:52.741Z,19.50
2022-08-17T08:16:36.727Z,15.98
2022-08-17T08:20:40.823Z,17.15
2022-08-17T08:25:12.861Z,20.87
2022-08-17T08:29:22.425Z,15.40
2022-08-17T08:33:35.767Z,15.80
2022-08-17T08:37:34.750Z,16.45
2022-08-17T08:41:19.663Z,17.65
2022-08-17T08:45:23.566Z,17.83
2022-08-17T08:49:14.389Z,18.77
2022-08-17T08:53:18.844Z,19.30
2022-08-17T08:57:27.814Z,18.75
2022-08-17T09:01:30.182Z,16.17
2022-08-17T09:05:57.419Z,15.30
2022-08-17T09:09:46.682Z,24.05
2022-08-17T09:13:54.469Z,15.73
2022-08-17T09:17:50.117Z,22.58
2022-08-17T09:21:48.610Z,17.50
2022-08-17T09:25:34.951Z,19.35
2022-08-17T09:29:19.913Z,22.13
2022-08-17T09:33:10.192Z,21.73
2022-08-17T09:37:03.488Z,19.08
2022-08-17T09:41:05.878Z,18.40
2022-08-17T09:44:59.611Z,15.88
2022-08-17T09:48:58.912Z,20.40
2022-08-17T09:52:42.887Z,18.30
2022-08-17T09:57:05.953Z,18.08
2022-08-17T10:01:22.578Z,20.10
2022-08-17T10:05:17.980Z,15.82
2022-08-17T10:09:08.470Z,16.30
2022-08-17T10:13:05.226Z,16.42
2022-08-17T10:17:15.823Z,16.58
2022-08-17T10:21:26.563Z,16.23
2022-08-17T10:25:54.142Z,20.05
2022-08-17T10:29:50.983Z,15.17
2022-08-17T10:33:54.141Z,13.70
2022-08-17T10:38:08.073Z,19.98
2022-08-17T10:41:54.130Z,16.05
2022-08-17T10:45:46.952Z,16.20
2022-08-17T10:49:33.862Z,16.17
2022-08-17T10:53:38.692Z,12.33
2022-08-17T10:57:36.438Z,12.82
2022-08-17T11:01:18.334Z,11.93
2022-08-17T11:05:20.719Z,14.55
2022-08-17T11:09:21.347Z,15.48
2022-08-17T11:13:28.048Z,15.43
2022-08-17T11:17:11.321Z,18.98
2022-08-17T11:21:20.771Z,16.10
2022-08-17T11:25:21.087Z,12.82
2022-08-17T11:29:09.600Z,12.40
2022-08-17T11:32:54.636Z,19.42
2022-08-17T11:37:07.877Z,13.95
2022-08-17T11:40:59.983Z,12.65
2022-08-17T11:44:56.400Z,13.88
2022-08-17T11:49:11.906Z,12.52
2022-08-17T11:52:53.909Z,16.73
2022-08-17T11:56:49.020Z,11.15
2022-08-17T12:00:56.637Z,14.55
2022-08-17T12:05:04.941Z,13.50
2022-08-17T12:09:00.303Z,11.43
2022-08-17T12:12:44.182Z,15.45
2022-08-17T12:16:26.157Z,11.23
2022-08-17T12:20:23.449Z,9.45
2022-08-17T12:24:15.505Z,15.40
2022-08-17T12:28:05.286Z,10.68
2022-08-17T12:31:54.422Z,11.65
2022-08-17T12:35:39.027Z,10.07
2022-08-17T12:39:25.051Z,11.13
2022-08-17T12:43:19.625Z,14.18
2022-08-17T12:47:19.386Z,14.32
2022-08-17T12:51:07.795Z,13.65
2022-08-17T12:55:22.992Z,9.40
2022-08-17T12:59:11.096Z,12.63
2022-08-17T13:02:53.421Z,8.63
2022-08-17T13:06:36.750Z,14.68
2022-08-17T13:10:31.592Z,10.63
2022-08-17T13:14:18.282Z,10.82
2022-08-17T13:18:22.799Z,9.77
2022-08-17T13:22:10.896Z,13.70
2022-08-17T13:25:57.710Z,8.20
2022-08-17T13:29:45.389Z,12.77
2022-08-17T13:33:43.682Z,11.20
2022-08-17T13:37:34.604Z,12.32
2022-08-17T13:41:53.016Z,7.75
2022-08-17T13:49:48.424Z,6.28
2022-08-17T13:53:36.969Z,5.25
2022-08-17T13:57:24.672Z,6.95
2022-08-17T14:01:29.758Z,4.80
2022-08-17T14:05:11.796Z,5.40
2022-08-17T14:08:55.760Z,5.22
2022-08-17T14:12:39.887Z,5.55
2022-08-17T14:16:22.226Z,3.90
2022-08-17T14:20:05.957Z,8.10
2022-08-17T14:23:54.289Z,3.33
2022-08-17T14:27:51.922Z,4.40
2022-08-17T14:31:41.459Z,9.60
2022-08-17T14:35:31.774Z,3.53
2022-08-17T14:39:16.553Z,7.60
2022-08-17T14:42:58.423Z,7.07
2022-08-17T14:46:42.150Z,4.85
2022-08-17T14:50:24.829Z,6.85
2022-08-17T14:54:07.786Z,5.90
2022-08-17T14:57:49.769Z,3.78
2022-08-17T15:01:31.860Z,9.02
2022-08-17T15:05:16.331Z,6.25
2022-08-17T15:08:58.233Z,5.88
2022-08-17T15:12:40.870Z,6.00
2022-08-17T15:16:23.459Z,3.53
2022-08-17T15:20:14.598Z,3.80
2022-08-17T15:24:02.996Z,5.43
2022-08-17T15:27:44.989Z,4.75
2022-08-17T15:31:31.947Z,7.57
2022-08-17T15:35:14.532Z,8.23
2022-08-17T15:38:56.367Z,2.47
2022-08-17T15:42:39.954Z,5.93
2022-08-17T15:46:26.850Z,5.88
2022-08-17T15:50:10.048Z,2.95
2022-08-17T15:53:55.080Z,5.20
2022-08-17T15:57:38.278Z,8.02
2022-08-17T16:02:27.742Z,4.95
2022-08-17T16:05:31.196Z,7.25
2022-08-17T16:09:13.301Z,6.40
2022-08-17T16:12:55.531Z,5.88
2022-08-17T16:16:37.342Z,6.93
2022-08-17T16:20:21.937Z,5.88
2022-08-17T16:24:13.307Z,4.70
2022-08-17T16:27:57.852Z,4.95
2022-08-17T16:31:43.461Z,8.05
2022-08-17T16:35:28.238Z,8.20
2022-08-17T16:39:10.701Z,5.78
2022-08-17T16:43:00.193Z,8.18
2022-08-17T16:46:45.500Z,6.55
2022-08-17T16:50:31.867Z,4.68
2022-08-17T16:54:17.784Z,6.43
2022-08-17T16:58:00.121Z,5.65
2022-08-17T17:01:43.253Z,8.98
2022-08-17T17:05:43.403Z,4.93
2022-08-17T17:09:29.451Z,5.45
2022-08-17T17:13:19.327Z,4.00
2022-08-17T17:17:09.051Z,6.30
2022-08-17T17:20:57.754Z,9.05
2022-08-17T17:24:58.515Z,6.38
2022-08-17T17:29:16.260Z,6.45
2022-08-17T17:33:19.561Z,6.93
2022-08-17T17:37:08.651Z,3.90
2022-08-17T17:40:54.838Z,5.70
2022-08-17T17:44:55.687Z,4.05
2022-08-17T17:48:37.677Z,4.45
2022-08-17T17:52:57.757Z,4.95
2022-08-17T17:56:59.850Z,6.70
2022-08-17T18:01:16.349Z,4.18
2022-08-17T18:05:03.769Z,6.68
2022-08-17T18:08:58.656Z,7.05
2022-08-17T18:12:43.300Z,5.57
2022-08-17T18:16:32.780Z,5.38
2022-08-17T18:20:32.378Z,6.28
2022-08-17T18:24:46.446Z,5.25
2022-08-17T18:28:35.691Z,5.45
2022-08-17T18:32:40.018Z,5.70
2022-08-17T18:36:36.239Z,4.32
2022-08-17T18:40:21.786Z,5.70
2022-08-17T18:44:44.498Z,3.47
2022-08-17T18:48:26.279Z,4.28
2022-08-17T18:52:17.348Z,6.28
2022-08-17T18:56:21.382Z,10.95
2022-08-17T19:00:14.602Z,4.47
2022-08-17T19:03:59.019Z,5.07
2022-08-17T19:07:45.148Z,4.68
2022-08-17T19:11:37.323Z,8.40
2022-08-17T19:15:27.731Z,4.82
2022-08-17T19:19:33.615Z,5.25
2022-08-17T19:23:31.702Z,4.32
2022-08-17T19:27:34.713Z,4.60
2022-08-17T19:31:27.366Z,4.75
2022-08-17T19:35:17.725Z,5.65
2022-08-17T19:39:37.996Z,3.92
2022-08-17T19:43:47.952Z,4.90
2022-08-17T19:47:54.341Z,3.65
2022-08-17T19:51:50.580Z,7.35
2022-08-17T19:55:43.593Z,3.50
2022-08-17T19:59:53.215Z,4.13
2022-08-17T20:03:54.672Z,5.63
2022-08-17T20:07:52.734Z,5.63
2022-08-17T20:15:41.403Z,9.20
2022-08-17T20:19:42.906Z,5.07
2022-08-17T20:23:36.594Z,4.65
2022-08-17T20:27:32.530Z,7.05
2022-08-17T20:32:01.583Z,7.10
2022-08-17T20:36:18.622Z,4.25
2022-08-17T20:40:00.481Z,4.70
2022-08-17T20:43:48.653Z,6.15
2022-08-17T20:47:55.143Z,7.75
2022-08-17T20:51:54.588Z,6.28
2022-08-17T20:55:51.360Z,5.90
2022-08-17T20:59:33.811Z,9.00
2022-08-17T21:03:24.306Z,6.68
2022-08-17T21:07:53.450Z,8.20
2022-08-17T21:11:57.261Z,8.20
2022-08-17T21:15:53.212Z,8.13
2022-08-17T21:20:12.875Z,9.38
2022-08-17T21:24:48.502Z,8.07
2022-08-17T21:29:00.804Z,7.80
2022-08-17T21:32:44.619Z,7.35
2022-08-17T21:36:27.291Z,7.82
2022-08-17T21:40:29.062Z,6.90
2022-08-17T21:44:48.618Z,7.47
2022-08-17T21:48:39.958Z,9.77
2022-08-17T21:52:25.519Z,7.82
2022-08-17T21:56:10.400Z,5.20
2022-08-17T22:00:06.773Z,5.32
2022-08-17T22:03:59.912Z,8.05
2022-08-17T22:07:50.876Z,6.35
2022-08-17T22:12:01.008Z,7.57
2022-08-17T22:15:45.215Z,9.45
2022-08-17T22:19:28.137Z,12.18
2022-08-17T22:23:33.077Z,5.70
2022-08-17T22:27:14.947Z,8.05
2022-08-17T22:31:04.268Z,6.13
2022-08-17T22:34:47.182Z,5.20
2022-08-17T22:38:30.043Z,3.80
2022-08-17T22:42:17.645Z,3.78
2022-08-17T22:46:00.245Z,8.68
2022-08-17T22:50:04.529Z,8.18
2022-08-17T22:54:11.562Z,4.20
2022-08-17T22:58:22.723Z,6.55
2022-08-17T23:02:21.374Z,4.28
2022-08-17T23:06:11.909Z,7.25
2022-08-17T23:09:53.733Z,10.88
2022-08-17T23:13:37.661Z,7.93
2022-08-17T23:17:19.504Z,9.23
2022-08-17T23:21:06.890Z,7.20
2022-08-17T23:24:51.485Z,5.88
2022-08-17T23:28:37.350Z,7.50
2022-08-17T23:32:19.170Z,5.93
2022-08-17T23:36:01.143Z,9.55
2022-08-17T23:39:46.772Z,8.93
2022-08-17T23:43:33.930Z,11.25
2022-08-17T23:47:16.031Z,7.80
2022-08-17T23:51:00.251Z,6.93
2022-08-17T23:54:53.112Z,9.20
2022-08-17T23:58:34.881Z,10.48
